KAZE

Hazlehurst Airport

Hazlehurst, Georgia, USA
METAR KAZE 151915Z AUTO 29004KT 10SM SCT120 14/01 A3005 RMK AO2 T01370010
Observed Flight Rules
Dec-15 @ 19:15 UTC (28 minutes ago) Visual Flight Rules
Wind Visibility Clouds
290° at 4 knots 10 miles
  • Scattered at 12,000' AGL
Temperatures Readings
Current 14°C / 57°F
Dewpoint 1°C / 34°F
Humidity 41%
Altimeter 30.05" Hg
Pressure 1018 hPa
Elevation 78
METAR KAZE 151915Z AUTO 29004KT 10SM SCT120 14/01 A3005 RMK AO2 T01370010
Observed Flight Rules
Dec-15 @ 19:15 UTC
(28 minutes ago)
VFR
Wind Visibility
290° at 4 knots 10 miles
Clouds
  • Scattered at 12,000' AGL
Temperature Dewpoint
14°C / 57°F 1°C / 34°F
Humidity Altimeter Pressure
41% 30.05" Hg 1018 hPa